Blair, WI

2:02 AM CST on February 06, 2016 (GMT -0600)
Black Oak | | Change Station
CLOSE
Current Station
Personal Weather Station
Location: Mindoro, WI
Elevation: 781 ft
Nearby Weather Stations

Elev 781 ft 44.06 °N, 91.15 °W | Updated 5 minutes ago

Overcast
Overcast
25.2 °F
Feels Like 20 °F
N
3.8
Wind Variable Wind from NW
Gusts 3.8 mph

Today
High -- | Low -- °F
--% Chance of Precip.
Yesterday
High -- | Low -- °F
Precip. -- in
Pressure 30.18 in
Visibility 10.0 miles
Clouds Overcast 1300 ft
Windchill 20 °F
Dew Point 24 °F
Humidity 97%
Rainfall 0.00 in
Snow Depth Not available.
7:17 AM 5:20 PM
Waning Crescent, 7% visible
METAR KBCK 060755Z AUTO 23005KT 10SM OVC013 M04/M07 A3018 RMK AO2 T10381067
Pressure 30.18 in
Visibility 10.0 miles
Clouds Overcast 1300 ft
Windchill 20 °F
Dew Point 24 °F
Humidity 97%
Rainfall 0.00 in
Snow Depth Not available.
7:17 AM 5:20 PM
Waning Crescent, 7% visible
METAR KBCK 060755Z AUTO 23005KT 10SM OVC013 M04/M07 A3018 RMK AO2 T10381067

10-Day Weather Forecast

Almanac

Astronomy

Feb. 06, 2016 Rise Set
Actual Time
Civil Twilight
Nautical Twilight
Astronomical Twilight
Moon
Length of Visible Light
Length of Day
Tomorrow will be .
, % of the Moon is Illuminated

Today's Extremes

State Highs State Lows

Community

WunderPhotos

Upload Photos

1,890,933 photos uploaded!

WunderBlog® & News

Nearby

Air Quality

  Air Quality AQ Index Pollutant
Not available.

Snow Depth

Station Depth Elevation

Earthquake Activity

City Distance Mag. Time & Date
Minimum magnitude displayed is 2.5.

Coastal Water Temperatures

Place Temperature

Stations

Nearby Weather Stations

Station Location Temp. Windchill Dew Point Humidity Wind Precip. Elev Updated Type
                   

Watches & Warnings

There are currently no watches in effect.